Time;durP1;ratioP1;P1;durP2;ratioP2;P2;SDS_P1;SDS_P2;PMS_P1;PMS_P2;Temp;Humidity;BMP_temperature;BMP_pressure;BME280_temperature;BME280_humidity;BME280_pressure;Samples;Min_cycle;Max_cycle;Signal;HPM_P1;HPM_P2
2022/08/13 00:04:46;;;;;;;0.55;0.50;;;;;;;;;;12833192;23;20017;-86
2022/08/13 00:09:51;;;;;;;0.30;0.30;;;;;;;;;;12832943;23;20401;-86
2022/08/13 00:14:56;;;;;;;0.90;0.30;;;;;;;;;;12832536;23;20027;-86
2022/08/13 00:20:02;;;;;;;0.30;0.30;;;;;;;;;;12833811;23;20511;-86
2022/08/13 00:25:10;;;;;;;0.40;0.40;;;;;;;;;;12832300;23;20028;-86
2022/08/13 00:30:16;;;;;;;0.30;0.30;;;;;;;;;;12833370;23;20074;-86
2022/08/13 00:35:22;;;;;;;0.77;0.43;;;;;;;;;;12833457;23;20071;-86
2022/08/13 00:40:29;;;;;;;0.50;0.38;;;;;;;;;;12831697;23;20036;-86
2022/08/13 00:45:38;;;;;;;0.30;0.30;;;;;;;;;;12833142;23;20016;-87
2022/08/13 00:50:45;;;;;;;0.20;0.20;;;;;;;;;;12859273;23;20016;-86
2022/08/13 00:55:51;;;;;;;0.60;0.50;;;;;;;;;;12832420;23;20013;-86
2022/08/13 01:00:58;;;;;;;0.75;0.50;;;;;;;;;;12802440;23;20067;-86
2022/08/13 01:06:05;;;;;;;0.30;0.30;;;;;;;;;;12794687;23;20029;-87
2022/08/13 01:11:12;;;;;;;0.65;0.40;;;;;;;;;;12733557;23;20342;-86
2022/08/13 01:16:20;;;;;;;0.30;0.30;;;;;;;;;;12730377;23;20030;-86
2022/08/13 01:21:31;;;;;;;0.22;0.22;;;;;;;;;;12757961;23;20032;-86
2022/08/13 01:26:36;;;;;;;0.40;0.20;;;;;;;;;;12732655;23;20018;-86
2022/08/13 01:31:43;;;;;;;0.52;0.35;;;;;;;;;;12733139;23;20029;-86
2022/08/13 01:36:51;;;;;;;0.20;0.20;;;;;;;;;;12732558;23;20022;-86
2022/08/13 01:41:56;;;;;;;0.40;0.30;;;;;;;;;;12758871;23;20079;-86
2022/08/13 01:52:25;;;;;;;1.27;0.43;;;;;;;;;;12730624;23;20018;-87
2022/08/13 01:57:33;;;;;;;0.73;0.40;;;;;;;;;;12721830;23;20022;-86
2022/08/13 02:02:39;;;;;;;0.30;0.30;;;;;;;;;;12777661;23;20024;-86
2022/08/13 02:07:46;;;;;;;0.30;0.27;;;;;;;;;;12767724;23;20021;-86
2022/08/13 02:12:52;;;;;;;0.60;0.47;;;;;;;;;;12767263;23;20075;-86
2022/08/13 02:17:57;;;;;;;0.40;0.38;;;;;;;;;;12767157;23;20060;-86
2022/08/13 02:23:06;;;;;;;0.50;0.40;;;;;;;;;;12790087;23;20017;-86
2022/08/13 02:28:11;;;;;;;0.82;0.35;;;;;;;;;;12765815;23;20021;-86
2022/08/13 02:33:16;;;;;;;1.30;0.47;;;;;;;;;;12793868;23;20356;-86
2022/08/13 02:38:23;;;;;;;1.00;0.43;;;;;;;;;;12767036;23;20021;-86
2022/08/13 02:43:27;;;;;;;0.35;0.30;;;;;;;;;;12766635;23;20017;-86
2022/08/13 02:48:32;;;;;;;0.43;0.43;;;;;;;;;;12768509;23;20385;-86
2022/08/13 02:53:42;;;;;;;0.28;0.25;;;;;;;;;;12770499;23;20063;-86
2022/08/13 02:58:52;;;;;;;0.88;0.50;;;;;;;;;;12770423;23;20025;-86
2022/08/13 03:03:58;;;;;;;0.38;0.38;;;;;;;;;;12794360;23;20396;-86
2022/08/13 03:09:05;;;;;;;0.50;0.40;;;;;;;;;;12768948;23;20021;-86
2022/08/13 03:14:11;;;;;;;0.55;0.38;;;;;;;;;;12797294;23;20067;-86
2022/08/13 03:19:15;;;;;;;;;;;;;;;;;;12773402;23;20025;-86
2022/08/13 03:24:27;;;;;;;0.68;0.43;;;;;;;;;;12796908;23;19962;-86
2022/08/13 03:29:31;;;;;;;0.60;0.30;;;;;;;;;;12772404;23;20024;-87
2022/08/13 03:34:37;;;;;;;0.82;0.40;;;;;;;;;;12766530;23;20025;-86
2022/08/13 03:39:43;;;;;;;0.30;0.30;;;;;;;;;;12798135;23;20079;-86
2022/08/13 03:44:48;;;;;;;0.50;0.30;;;;;;;;;;12796959;23;20021;-86
2022/08/13 03:49:54;;;;;;;0.45;0.45;;;;;;;;;;12771707;23;20369;-86
2022/08/13 03:55:00;;;;;;;0.40;0.40;;;;;;;;;;12772459;23;20021;-86
2022/08/13 04:00:11;;;;;;;1.75;0.40;;;;;;;;;;12772458;23;20047;-86
2022/08/13 04:05:18;;;;;;;0.50;0.50;;;;;;;;;;12771757;23;20017;-86
2022/08/13 04:10:25;;;;;;;0.20;0.20;;;;;;;;;;12796944;23;20029;-86
2022/08/13 04:15:32;;;;;;;0.75;0.43;;;;;;;;;;12795605;23;20020;-86
2022/08/13 04:20:38;;;;;;;0.95;0.40;;;;;;;;;;12771170;23;20021;-86
2022/08/13 04:25:46;;;;;;;0.30;0.30;;;;;;;;;;12770789;23;20021;-86
2022/08/13 04:30:50;;;;;;;0.60;0.40;;;;;;;;;;12771954;23;20095;-86
2022/08/13 04:35:56;;;;;;;0.35;0.35;;;;;;;;;;12771653;23;20021;-86
2022/08/13 04:41:03;;;;;;;0.83;0.30;;;;;;;;;;12795679;23;20113;-86
2022/08/13 04:46:08;;;;;;;0.40;0.40;;;;;;;;;;12771297;23;20049;-86
2022/08/13 04:51:15;;;;;;;0.38;0.35;;;;;;;;;;12767755;23;20516;-86
2022/08/13 04:56:24;;;;;;;0.60;0.32;;;;;;;;;;12795284;23;20068;-86
2022/08/13 05:01:29;;;;;;;0.30;0.30;;;;;;;;;;12770489;23;20017;-87
2022/08/13 05:06:33;;;;;;;0.30;0.30;;;;;;;;;;12769413;23;20021;-86
2022/08/13 05:11:40;;;;;;;0.30;0.30;;;;;;;;;;12769654;23;20107;-86
2022/08/13 05:16:47;;;;;;;0.65;0.30;;;;;;;;;;12769771;23;20025;-85
2022/08/13 05:21:52;;;;;;;0.30;0.30;;;;;;;;;;12769818;23;20104;-86
2022/08/13 05:26:59;;;;;;;0.35;0.35;;;;;;;;;;12770802;23;20024;-86
2022/08/13 05:32:10;;;;;;;0.20;0.20;;;;;;;;;;12770319;23;20017;-86
2022/08/13 05:37:16;;;;;;;0.25;0.25;;;;;;;;;;12795946;23;20021;-86
2022/08/13 05:42:22;;;;;;;0.35;0.35;;;;;;;;;;12769681;23;20029;-87
2022/08/13 05:47:27;;;;;;;0.30;0.30;;;;;;;;;;12770391;23;20411;-86
2022/08/13 05:52:34;;;;;;;0.60;0.30;;;;;;;;;;12768974;23;20056;-87
2022/08/13 05:57:43;;;;;;;0.30;0.30;;;;;;;;;;12765810;23;20025;-87
2022/08/13 06:08:15;;;;;;;0.30;0.30;;;;;;;;;;12768352;23;20017;-87
2022/08/13 06:13:22;;;;;;;1.08;0.28;;;;;;;;;;12792345;23;20041;-87
2022/08/13 06:18:29;;;;;;;0.20;0.20;;;;;;;;;;12767576;23;20103;-87
2022/08/13 06:23:36;;;;;;;0.65;0.30;;;;;;;;;;12793066;23;20627;-87
2022/08/13 06:28:45;;;;;;;0.20;0.20;;;;;;;;;;12770769;23;20024;-87
2022/08/13 06:33:50;;;;;;;0.22;0.22;;;;;;;;;;12772630;23;20017;-87
2022/08/13 06:39:04;;;;;;;0.10;0.10;;;;;;;;;;12770471;23;20013;-87
2022/08/13 06:44:11;;;;;;;0.28;0.25;;;;;;;;;;12772955;23;20484;-87
2022/08/13 06:49:15;;;;;;;0.52;0.40;;;;;;;;;;12770859;23;20016;-87
2022/08/13 06:54:21;;;;;;;0.47;0.38;;;;;;;;;;12770962;23;20020;-88
2022/08/13 06:59:27;;;;;;;0.77;0.20;;;;;;;;;;12794941;23;20254;-87
2022/08/13 07:04:31;;;;;;;;;;;;;;;;;;12770195;23;20108;-87
2022/08/13 07:09:36;;;;;;;0.70;0.50;;;;;;;;;;12770316;23;19916;-87
2022/08/13 07:14:44;;;;;;;0.55;0.40;;;;;;;;;;12772868;23;20100;-87
2022/08/13 07:19:48;;;;;;;0.70;0.40;;;;;;;;;;12771916;23;20021;-87
2022/08/13 07:24:52;;;;;;;0.40;0.30;;;;;;;;;;12770368;23;20021;-87
2022/08/13 07:29:59;;;;;;;0.40;0.30;;;;;;;;;;12771771;23;20028;-87
2022/08/13 07:35:11;;;;;;;0.30;0.30;;;;;;;;;;12795840;23;20017;-87
2022/08/13 07:40:15;;;;;;;0.85;0.50;;;;;;;;;;12771253;23;20025;-86
2022/08/13 07:45:27;;;;;;;1.80;0.40;;;;;;;;;;12769917;23;20021;-86
2022/08/13 07:50:34;;;;;;;1.27;0.30;;;;;;;;;;12772996;23;20075;-87
2022/08/13 07:55:41;;;;;;;0.25;0.20;;;;;;;;;;12771737;23;20014;-87
2022/08/13 08:00:47;;;;;;;0.20;0.10;;;;;;;;;;12796885;23;20446;-87
2022/08/13 08:05:54;;;;;;;1.17;0.50;;;;;;;;;;12796934;23;20017;-87
2022/08/13 08:10:58;;;;;;;0.28;0.15;;;;;;;;;;12771676;23;20064;-88
2022/08/13 08:16:06;;;;;;;0.20;0.20;;;;;;;;;;12797068;23;20045;-88
2022/08/13 08:21:12;;;;;;;1.13;0.20;;;;;;;;;;12769318;23;20052;-87
2022/08/13 08:26:18;;;;;;;0.20;0.20;;;;;;;;;;12771308;23;20051;-87
2022/08/13 08:31:26;;;;;;;0.30;0.20;;;;;;;;;;12772408;23;20028;-87
2022/08/13 08:36:32;;;;;;;0.10;0.10;;;;;;;;;;12771785;23;20096;-87
2022/08/13 08:47:02;;;;;;;0.10;0.10;;;;;;;;;;12770106;23;20017;-87
2022/08/13 08:52:08;;;;;;;0.10;0.10;;;;;;;;;;12771359;23;20099;-87
2022/08/13 08:57:14;;;;;;;0.22;0.22;;;;;;;;;;12772122;23;20092;-87
2022/08/13 09:02:24;;;;;;;1.60;0.23;;;;;;;;;;12771765;23;20017;-87
2022/08/13 09:07:30;;;;;;;0.13;0.10;;;;;;;;;;12794282;23;20021;-87
2022/08/13 09:12:40;;;;;;;;;;;;;;;;;;12713523;23;20024;-86
2022/08/13 09:17:47;;;;;;;0.13;0.13;;;;;;;;;;12765270;23;20360;-86
2022/08/13 09:23:04;;;;;;;0.40;0.40;;;;;;;;;;12793234;23;20048;-86
2022/08/13 09:28:09;;;;;;;0.40;0.20;;;;;;;;;;12694459;23;20059;-88
2022/08/13 09:33:14;;;;;;;0.10;0.10;;;;;;;;;;12752545;23;20021;-88
2022/08/13 09:38:21;;;;;;;0.20;0.20;;;;;;;;;;12776698;23;20505;-87
2022/08/13 09:43:31;;;;;;;0.28;0.20;;;;;;;;;;12753091;23;20053;-87
2022/08/13 09:48:37;;;;;;;0.40;0.28;;;;;;;;;;12777379;23;20028;-87
2022/08/13 09:53:43;;;;;;;0.10;0.10;;;;;;;;;;12777257;23;20032;-88
2022/08/13 09:58:50;;;;;;;0.10;0.10;;;;;;;;;;12751933;23;20037;-87
2022/08/13 10:03:56;;;;;;;0.10;0.10;;;;;;;;;;12752499;23;20032;-87
2022/08/13 10:09:00;;;;;;;0.30;0.30;;;;;;;;;;12752424;23;20319;-88
2022/08/13 10:14:04;;;;;;;0.20;0.20;;;;;;;;;;12754909;23;20028;-87
2022/08/13 10:19:09;;;;;;;0.10;0.10;;;;;;;;;;12753318;23;20021;-88
2022/08/13 10:24:13;;;;;;;0.20;0.17;;;;;;;;;;12753242;23;20032;-87
2022/08/13 10:29:17;;;;;;;0.40;0.20;;;;;;;;;;12753788;23;20021;-87
2022/08/13 10:34:24;;;;;;;0.20;0.15;;;;;;;;;;12754141;23;20021;-87
2022/08/13 10:39:28;;;;;;;0.28;0.20;;;;;;;;;;12754282;23;20075;-87
2022/08/13 10:44:32;;;;;;;0.32;0.28;;;;;;;;;;12779294;23;20025;-87
2022/08/13 10:49:37;;;;;;;1.88;0.20;;;;;;;;;;12754370;23;20365;-87
2022/08/13 10:54:41;;;;;;;0.68;0.20;;;;;;;;;;12755117;23;20104;-87
2022/08/13 10:59:46;;;;;;;0.28;0.28;;;;;;;;;;12755311;23;20029;-88
2022/08/13 11:04:51;;;;;;;0.30;0.20;;;;;;;;;;12754562;23;20032;-88
2022/08/13 11:09:55;;;;;;;0.28;0.20;;;;;;;;;;12754828;23;20029;-88
2022/08/13 11:14:59;;;;;;;0.55;0.20;;;;;;;;;;12756375;23;20031;-88
2022/08/13 11:20:13;;;;;;;0.32;0.20;;;;;;;;;;12758517;23;20024;-88
2022/08/13 11:25:17;;;;;;;0.25;0.10;;;;;;;;;;12759827;23;20480;-87
2022/08/13 11:30:24;;;;;;;0.38;0.28;;;;;;;;;;12759064;23;20116;-88
2022/08/13 11:35:29;;;;;;;0.22;0.10;;;;;;;;;;12758049;23;20032;-88
2022/08/13 11:40:34;;;;;;;0.40;0.30;;;;;;;;;;12761278;23;20051;-88
2022/08/13 11:45:38;;;;;;;1.52;0.38;;;;;;;;;;12760527;23;20047;-88
2022/08/13 11:50:43;;;;;;;0.20;0.20;;;;;;;;;;12759222;23;20028;-88
2022/08/13 11:55:47;;;;;;;0.52;0.20;;;;;;;;;;12785809;23;20021;-88
2022/08/13 12:00:54;;;;;;;0.67;0.43;;;;;;;;;;12759703;23;20052;-88
2022/08/13 12:05:59;;;;;;;0.10;0.10;;;;;;;;;;12758704;23;20052;-88
2022/08/13 12:11:03;;;;;;;0.35;0.30;;;;;;;;;;12782227;23;20398;-87
2022/08/13 12:16:07;;;;;;;0.43;0.15;;;;;;;;;;12786021;23;20021;-88
2022/08/13 12:21:13;;;;;;;0.20;0.20;;;;;;;;;;12756852;23;20818;-88
2022/08/13 12:26:16;;;;;;;0.82;0.10;;;;;;;;;;12758897;23;20032;-88
2022/08/13 12:31:20;;;;;;;0.10;0.10;;;;;;;;;;12700807;23;20026;-88
2022/08/13 12:36:26;;;;;;;0.38;0.20;;;;;;;;;;12696746;23;20025;-88
2022/08/13 12:41:31;;;;;;;0.30;0.30;;;;;;;;;;12694620;23;20060;-88
2022/08/13 12:46:35;;;;;;;0.28;0.10;;;;;;;;;;12719646;23;20025;-88
2022/08/13 12:51:40;;;;;;;0.45;0.10;;;;;;;;;;12694016;23;20025;-88
2022/08/13 12:56:45;;;;;;;0.20;0.20;;;;;;;;;;12694775;23;20076;-88
2022/08/13 13:01:52;;;;;;;0.20;0.20;;;;;;;;;;12717244;23;20052;-88
2022/08/13 13:06:57;;;;;;;0.20;0.20;;;;;;;;;;12695391;23;20034;-88
2022/08/13 13:12:01;;;;;;;0.30;0.20;;;;;;;;;;12692324;23;20043;-88
2022/08/13 13:17:05;;;;;;;0.38;0.30;;;;;;;;;;12743832;23;20025;-89
2022/08/13 13:22:11;;;;;;;0.20;0.10;;;;;;;;;;12718695;23;20276;-89
2022/08/13 13:40:51;;;;;;;0.20;0.20;;;;;;;;;;12848242;22;1366429;-88
2022/08/13 13:45:56;;;;;;;0.20;0.20;;;;;;;;;;12884926;23;20024;-88
2022/08/13 14:55:14;;;;;;;0.20;0.20;;;;;;;;;;10642815;27;20611;-89
2022/08/13 15:00:18;;;;;;;0.40;0.40;;;;;;;;;;10604248;27;20051;-88
2022/08/13 15:05:22;;;;;;;0.35;0.20;;;;;;;;;;10599802;27;20035;-88
2022/08/13 15:10:29;;;;;;;0.45;0.28;;;;;;;;;;10585518;27;20035;-88
2022/08/13 15:15:33;;;;;;;0.20;0.20;;;;;;;;;;10578314;27;20051;-89
2022/08/13 16:39:26;;;;;;;0.20;0.20;;;;;;;;;;9982558;29;20045;-80
2022/08/13 17:39:20;;;;;;;0.20;0.10;;;;;;;;;;9723940;30;20065;-81
2022/08/13 17:44:27;;;;;;;0.17;0.17;;;;;;;;;;9733390;30;20053;-81
2022/08/13 17:57:03;;;;;;;0.10;0.10;;;;;;;;;;9727142;30;20067;-83
2022/08/13 18:16:40;;;;;;;0.20;0.20;;;;;;;;;;9872143;29;20079;-81
2022/08/13 18:21:53;;;;;;;0.65;0.20;;;;;;;;;;10005289;29;20046;-82
2022/08/13 18:27:44;;;;;;;0.13;0.13;;;;;;;;;;10089292;29;20093;-82
2022/08/13 18:33:41;;;;;;;0.10;0.10;;;;;;;;;;10071714;29;20053;-82
2022/08/13 18:39:32;;;;;;;0.45;0.15;;;;;;;;;;10066713;29;20057;-82
2022/08/13 18:44:52;;;;;;;0.20;0.20;;;;;;;;;;10101786;29;20054;-81
2022/08/13 18:49:59;;;;;;;0.10;0.10;;;;;;;;;;10121023;29;20134;-81
2022/08/13 18:55:07;;;;;;;0.50;0.20;;;;;;;;;;10105240;29;20052;-82
2022/08/13 19:33:03;;;;;;;0.95;0.40;;;;;;;;;;10145815;29;20047;-82
2022/08/13 19:44:31;;;;;;;0.47;0.47;;;;;;;;;;10159452;29;20124;-83
2022/08/13 19:50:08;;;;;;;0.40;0.35;;;;;;;;;;10165763;29;20048;-81
2022/08/13 19:55:28;;;;;;;0.32;0.32;;;;;;;;;;10155859;29;20084;-81
2022/08/13 20:14:38;;;;;;;0.82;0.30;;;;;;;;;;10097601;29;20045;-83
2022/08/13 20:20:19;;;;;;;0.38;0.38;;;;;;;;;;10132054;29;20041;-83
2022/08/13 20:39:06;;;;;;;0.73;0.50;;;;;;;;;;10093373;29;20128;-82
2022/08/13 20:45:00;;;;;;;1.42;0.40;;;;;;;;;;10092103;29;20059;-83
2022/08/13 20:50:05;;;;;;;0.43;0.43;;;;;;;;;;10105836;29;20070;-82
2022/08/13 20:55:17;;;;;;;1.08;0.63;;;;;;;;;;10107232;29;20061;-81
2022/08/13 21:07:39;;;;;;;1.15;0.65;;;;;;;;;;10107813;29;20041;-82
2022/08/13 21:20:07;;;;;;;0.77;0.52;;;;;;;;;;10085252;29;20521;-82
2022/08/13 21:25:13;;;;;;;0.75;0.45;;;;;;;;;;10090545;29;20120;-80
2022/08/13 21:30:18;;;;;;;0.35;0.35;;;;;;;;;;10104814;29;20493;-81
2022/08/13 21:35:25;;;;;;;0.30;0.30;;;;;;;;;;10089786;29;20091;-81
2022/08/13 21:40:32;;;;;;;0.55;0.50;;;;;;;;;;10089518;29;20109;-81
2022/08/13 21:45:36;;;;;;;0.80;0.75;;;;;;;;;;10104011;29;20061;-81
2022/08/13 21:50:41;;;;;;;0.60;0.60;;;;;;;;;;10089343;29;20045;-81
2022/08/13 21:55:49;;;;;;;1.10;0.70;;;;;;;;;;10104503;29;20053;-82
2022/08/13 22:05:59;;;;;;;0.20;0.20;;;;;;;;;;10508682;27;20474;-82
2022/08/13 22:17:11;;;;;;;3.13;0.60;;;;;;;;;;10464679;28;20041;-81
2022/08/13 22:22:32;;;;;;;0.77;0.60;;;;;;;;;;10474259;28;20051;-81
